Data for 10/09/2005

Time Sea-Level Adjusted Pressure Absolute Pressure Temperature Relative Humidity Dew Point   
(mb) (inHg) (mb) (inHg) (C) (F) (%) (C) (F)
00:05 1014 29.94 843 24.89 2.1 35.8 98 1.8 35.2
00:10 1014 29.94 843 24.89 2.1 35.8 97 1.7 35.1
00:15 1014 29.94 843 24.89 2.1 35.8 97 1.7 35
00:20 1014 29.94 843 24.89 2.1 35.8 97 1.7 35
00:25 1014 29.94 843 24.89 2.1 35.8 97 1.6 34.9
00:30 1014 29.94 843 24.89 2 35.7 97 1.6 34.9
00:35 1014 29.94 843 24.89 2 35.6 97 1.5 34.7
00:40 1014 29.94 843 24.89 2 35.5 97 1.5 34.7
00:45 1014 29.94 843 24.89 2 35.6 97 1.5 34.7
00:50 1014 29.94 843 24.89 2 35.5 97 1.5 34.7
00:55 1014 29.94 843 24.89 1.9 35.5 97 1.5 34.6
01:00 1014 29.94 843 24.89 2 35.5 97 1.5 34.8
01:05 1014 29.94 843 24.89 2 35.6 97 1.6 34.8
01:10 1014 29.94 843 24.89 2.1 35.7 97 1.6 34.9
01:15 1014 29.94 843 24.89 2.1 35.8 97 1.6 34.9
01:20 1014 29.94 843 24.89 2.1 35.8 96 1.6 34.9
01:25 1014 29.94 844 24.92 2.2 36 96 1.7 35
01:30 1014 29.94 844 24.92 2.3 36.2 97 1.8 35.3
01:35 1014 29.94 844 24.92 2.2 36 97 1.7 35.1
01:40 1014 29.94 844 24.92 2.2 36 96 1.7 35.1
01:45 1014 29.94 844 24.92 2.2 35.9 97 1.7 35.1
01:50 1014 29.94 844 24.92 2.3 36.1 96 1.8 35.2
01:55 1014 29.94 844 24.92 2.3 36.1 96 1.7 35.1
02:00 1014 29.94 844 24.92 2.4 36.2 96 1.7 35.1
02:05 1014 29.94 844 24.92 2.3 36.2 96 1.7 35.1
02:10 1014 29.94 844 24.92 2.4 36.3 96 1.8 35.3
02:15 1015 29.97 844 24.92 2.3 36.2 96 1.8 35.3
02:20 1015 29.97 844 24.92 2.4 36.3 96 1.8 35.2
02:25 1015 29.97 844 24.92 2.5 36.4 96 1.9 35.3
02:30 1015 29.97 844 24.92 2.5 36.5 96 1.9 35.4
02:35 1015 29.97 844 24.92 2.5 36.6 96 1.9 35.5
02:40 1015 29.97 844 24.92 2.6 36.6 96 2 35.5
02:45 1015 29.97 844 24.92 2.6 36.8 96 2.1 35.7
02:50 1015 29.97 844 24.92 2.7 36.8 96 2.1 35.8
02:55 1015 29.97 844 24.92 2.8 37 96 2.2 36
03:00 1015 29.97 844 24.92 2.8 37 96 2.2 36
03:05 1015 29.97 844 24.92 2.8 37 97 2.3 36.2
03:10 1015 29.97 844 24.92 2.8 37.1 97 2.3 36.2
03:15 1015 29.97 844 24.92 2.8 37.1 97 2.4 36.3
03:20 1015 29.97 844 24.92 2.8 37 97 2.3 36.2
03:25 1015 29.97 844 24.92 2.7 36.9 97 2.4 36.2
03:30 1015 29.97 844 24.92 2.8 37 97 2.4 36.3
03:35 1015 29.97 844 24.92 2.8 37 97 2.3 36.2
03:40 1015 29.97 844 24.92 2.7 36.9 97 2.3 36.1
03:45 1015 29.97 844 24.92 2.7 36.9 97 2.3 36.1
03:50 1015 29.97 844 24.92 2.7 36.8 97 2.2 36
03:55 1015 29.97 844 24.92 2.7 36.9 97 2.3 36.2
04:00 1015 29.97 844 24.92 2.8 37 97 2.3 36.2
04:05 1015 29.97 844 24.92 2.9 37.3 97 2.5 36.4
04:10 1015 29.97 844 24.92 3.1 37.6 96 2.4 36.4
04:15 1015 29.97 844 24.92 3.2 37.7 94 2.3 36.2
04:20 1015 29.97 844 24.92 3 37.4 95 2.3 36.1
04:25 1015 29.97 844 24.92 2.8 37 96 2.1 35.8
04:30 1015 29.97 844 24.92 2.7 36.9 96 2.2 36
04:35 1015 29.97 844 24.92 2.7 36.9 96 2.2 36
04:40 1015 29.97 844 24.92 2.9 37.1 96 2.3 36.1
04:45 1015 29.97 844 24.92 3 37.4 96 2.4 36.3
04:50 1015 29.97 844 24.92 2.9 37.3 96 2.3 36.2
04:55 1015 29.97 844 24.92 2.8 37 97 2.3 36.1
05:00 1015 29.97 844 24.92 2.7 36.9 97 2.2 36
05:05 1015 29.97 845 24.95 2.7 36.9 97 2.3 36.2
05:10 1015 29.97 844 24.92 2.8 37 97 2.4 36.3
05:15 1015 29.97 845 24.95 2.9 37.2 97 2.5 36.4
05:20 1015 29.97 845 24.95 3 37.3 97 2.6 36.6
05:25 1015 29.97 845 24.95 3.1 37.5 96 2.5 36.5
05:30 1015 29.97 845 24.95 3 37.5 96 2.4 36.3
05:35 1016 30 845 24.95 2.9 37.2 97 2.4 36.3
05:40 1016 30 845 24.95 2.9 37.2 97 2.4 36.3
05:45 1016 30 845 24.95 2.9 37.2 97 2.4 36.4
05:50 1016 30 845 24.95 2.8 37 97 2.4 36.3
05:55 1016 30 845 24.95 2.8 37 97 2.4 36.3
06:00 1016 30 845 24.95 2.8 37.1 97 2.4 36.3
06:05 1016 30 845 24.95 2.7 36.9 97 2.3 36.2
06:10 1016 30 845 24.95 2.8 37 97 2.4 36.4
06:15 1016 30 845 24.95 2.7 36.8 97 2.3 36.1
06:20 1016 30 845 24.95 2.6 36.6 98 2.2 36
06:25 1016 30 845 24.95 2.6 36.6 98 2.3 36.2
06:30 1016 30 845 24.95 2.6 36.7 98 2.4 36.3
06:35 1016 30 845 24.95 2.7 36.8 98 2.5 36.4
06:40 1016 30 845 24.95 2.8 37.1 98 2.6 36.7
06:45 1016 30 845 24.95 2.9 37.3 98 2.7 36.8
06:50 1016 30 846 24.98 3.1 37.6 98 2.8 37.1
06:55 1016 30 846 24.98 3.2 37.7 98 2.8 37.1
07:00 1016 30 846 24.98 3.1 37.7 97 2.7 36.9
07:05 1016 30 846 24.98 3.1 37.6 96 2.6 36.7
07:10 1017 30.03 846 24.98 3.2 37.7 96 2.6 36.7
07:15 1017 30.03 846 24.98 3.2 37.7 96 2.6 36.7
07:20 1017 30.03 846 24.98 3.1 37.6 96 2.6 36.6
07:25 1017 30.03 846 24.98 3.1 37.5 96 2.6 36.6
07:30 1017 30.03 846 24.98 3 37.5 96 2.5 36.5
07:35 1017 30.03 846 24.98 3.1 37.6 96 2.6 36.6
07:40 1017 30.03 846 24.98 3.2 37.7 95 2.5 36.5
07:45 1017 30.03 846 24.98 3.1 37.5 95 2.4 36.3
07:50 1017 30.03 846 24.98 2.9 37.3 96 2.3 36.2
07:55 1017 30.03 846 24.98 2.8 37.1 96 2.3 36.1
08:00 1017 30.03 846 24.98 2.8 37 97 2.3 36.2
08:05 1017 30.03 846 24.98 2.9 37.2 97 2.4 36.3
08:10 1017 30.03 847 25.01 2.8 37.1 97 2.4 36.3
08:15 1017 30.03 847 25.01 2.9 37.3 97 2.5 36.4
08:20 1018 30.06 847 25.01 2.9 37.2 97 2.4 36.4
08:25 1018 30.06 847 25.01 2.9 37.3 97 2.5 36.6
08:30 1018 30.06 847 25.01 3 37.3 97 2.5 36.6
08:35 1018 30.06 847 25.01 2.9 37.2 98 2.6 36.6
08:40 1018 30.06 847 25.01 3.1 37.6 98 2.8 37
08:45 1018 30.06 847 25.01 3.4 38.1 97 2.9 37.3
08:50 1018 30.06 847 25.01 3.6 38.6 95 2.9 37.2
08:55 1018 30.06 847 25.01 3.9 38.9 94 3 37.3
09:00 1018 30.06 847 25.01 4 39.3 91 2.7 36.8
09:05 1018 30.06 847 25.01 4.1 39.4 91 2.7 36.8
09:10 1018 30.06 847 25.01 4.2 39.6 90 2.8 37
09:15 1018 30.06 847 25.01 4.9 40.9 86 2.8 37
09:20 1018 30.06 847 25.01 5.8 42.4 83 3.2 37.8
09:25 1018 30.06 848 25.04 6 42.8 81 3 37.4
09:30 1018 30.06 848 25.04 5.3 41.5 85 3 37.4
09:35 1019 30.09 848 25.04 5 41.1 86 3 37.3
09:40 1019 30.09 848 25.04 5.2 41.4 87 3.3 37.9
09:45 1019 30.09 848 25.04 4.6 40.3 92 3.4 38.1
09:50 1019 30.09 848 25.04 4.4 39.9 91 3.1 37.6
09:55 1019 30.09 848 25.04 4.5 40.1 91 3.1 37.7
10:00 1019 30.09 848 25.04 4.6 40.2 91 3.2 37.8
10:05 1019 30.09 848 25.04 4.6 40.2 90 3.1 37.6
10:10 1019 30.09 848 25.04 4.6 40.3 90 3.1 37.6
10:15 1019 30.09 848 25.04 4.7 40.5 90 3.2 37.8
10:20 1019 30.09 848 25.04 4.9 40.8 89 3.2 37.8
10:25 1019 30.09 848 25.04 4.9 40.8 89 3.2 37.7
10:30 1019 30.09 849 25.07 5.1 41.2 87 3.2 37.8
10:35 1019 30.09 849 25.07 5.5 41.8 86 3.3 38
10:40 1019 30.09 849 25.07 5.7 42.2 84 3.2 37.8
10:45 1020 30.12 849 25.07 5.8 42.4 85 3.5 38.3
10:50 1020 30.12 849 25.07 5.8 42.5 84 3.3 37.9
10:55 1020 30.12 849 25.07 6.1 42.9 84 3.6 38.5
11:00 1020 30.12 849 25.07 6.1 42.9 83 3.5 38.2
11:05 1020 30.12 849 25.07 6 42.9 85 3.7 38.6
11:10 1020 30.12 849 25.07 6.2 43.2 80 3 37.3
11:15 1020 30.12 849 25.07 6.3 43.4 79 2.9 37.2
11:20 1020 30.12 849 25.07 6.4 43.6 77 2.8 37
11:25 1020 30.12 849 25.07 6.4 43.6 79 3 37.4
11:30 1020 30.12 849 25.07 6.2 43.2 78 2.6 36.7
11:35 1020 30.12 849 25.07 6.4 43.6 76 2.5 36.5
11:40 1020 30.12 849 25.07 6 42.7 79 2.5 36.6
11:45 1020 30.12 849 25.07 5.6 42.1 82 2.8 37
11:50 1020 30.12 849 25.07 5.9 42.6 79 2.5 36.5
11:55 1020 30.12 849 25.07 6.8 44.3 76 2.8 37.1
12:00 1020 30.12 849 25.07 7.8 46.1 69 2.5 36.6
12:05 1020 30.12 850 25.1 7.8 46.1 69 2.5 36.5
12:10 1020 30.12 850 25.1 7.4 45.4 73 3 37.4
12:15 1020 30.12 850 25.1 7.3 45.2 73 2.8 37
12:20 1020 30.12 850 25.1 7.3 45.1 73 2.8 37
12:25 1020 30.12 850 25.1 7.1 44.8 75 2.9 37.3
12:30 1020 30.12 850 25.1 7.2 45 73 2.8 37
12:35 1020 30.12 850 25.1 7.1 44.8 75 3 37.4
12:40 1020 30.12 850 25.1 7.2 44.9 73 2.8 37
12:45 1021 30.15 850 25.1 7.9 46.2 72 3.2 37.8
12:50 1021 30.15 850 25.1 8.1 46.6 71 3.1 37.6
12:55 1021 30.15 850 25.1 8 46.5 69 2.6 36.8
13:00 1021 30.15 850 25.1 8.7 47.7 62 1.8 35.3
13:05 1021 30.15 850 25.1 8.5 47.4 66 2.5 36.5
13:10 1021 30.15 850 25.1 8.3 46.9 69 2.9 37.2
13:15 1021 30.15 850 25.1 8.3 47 66 2.3 36.2
13:20 1021 30.15 850 25.1 8.4 47.2 69 3.1 37.6
13:25 1021 30.15 850 25.1 8 46.3 68 2.4 36.4
13:30 1021 30.15 850 25.1 7.8 46.1 67 2.2 35.9
13:35 1021 30.15 850 25.1 8 46.4 64 1.8 35.2
13:40 1021 30.15 850 25.1 8.3 46.9 66 2.2 36
13:45 1021 30.15 850 25.1 8.2 46.7 67 2.4 36.4
13:50 1021 30.15 850 25.1 7.9 46.2 68 2.4 36.4
13:55 1021 30.15 850 25.1 7.4 45.2 71 2.4 36.4
14:00 1021 30.15 850 25.1 6.7 44 77 3 37.4
14:05 1021 30.15 850 25.1 6.8 44.2 79 3.4 38.1
14:10 1021 30.15 850 25.1 6.9 44.4 74 2.6 36.7
14:15 1021 30.15 850 25.1 6.7 44.1 73 2.3 36.2
14:20 1021 30.15 850 25.1 6.8 44.3 77 3.2 37.7
14:25 1021 30.15 850 25.1 7.1 44.8 75 3 37.5
14:30 1021 30.15 850 25.1 6.9 44.4 79 3.5 38.3
14:35 1021 30.15 850 25.1 7.5 45.5 75 3.4 38.1
14:40 1021 30.15 850 25.1 7.4 45.4 75 3.2 37.8
14:45 1021 30.15 850 25.1 6.8 44.2 77 3 37.4
14:50 1021 30.15 850 25.1 6.8 44.2 76 2.9 37.2
14:55 1021 30.15 850 25.1 6.9 44.5 75 2.8 37
15:00 1021 30.15 850 25.1 7 44.6 76 3 37.4
15:05 1021 30.15 850 25.1 6.9 44.4 73 2.4 36.2
15:10 1021 30.15 850 25.1 7.2 45 70 2.1 35.9
15:15 1021 30.15 851 25.13 7 44.5 71 2.1 35.7
15:20 1021 30.15 851 25.13 6.9 44.4 65 0.8 33.4
15:25 1021 30.15 851 25.13 7.1 44.8 63 0.6 33.1
15:30 1022 30.18 851 25.13 7.2 44.9 63 0.7 33.2
15:35 1022 30.18 851 25.13 7.3 45.2 64 1 33.8
15:40 1022 30.18 851 25.13 7.5 45.6 66 1.7 35.1
15:45 1022 30.18 851 25.13 7.6 45.7 66 1.7 35
15:50 1022 30.18 851 25.13 7.6 45.7 67 1.9 35.5
15:55 1022 30.18 851 25.13 7.6 45.7 66 1.8 35.2
16:00 1022 30.18 851 25.13 7.6 45.6 68 2 35.6
16:05 1022 30.18 851 25.13 7.6 45.7 68 2.1 35.9
16:10 1022 30.18 851 25.13 8.4 47.2 63 1.8 35.2
16:15 1022 30.18 851 25.13 8.7 47.7 63 2.1 35.7
16:20 1022 30.18 851 25.13 8.4 47.2 65 2.3 36.1
16:25 1022 30.18 851 25.13 7.7 45.9 67 2.1 35.7
16:30 1022 30.18 851 25.13 7.6 45.7 65 1.6 34.8
16:35 1022 30.18 851 25.13 8 46.5 63 1.4 34.5
16:40 1022 30.18 851 25.13 8.3 47 59 0.8 33.4
16:45 1022 30.18 851 25.13 8.4 47.2 59 0.9 33.6
16:50 1022 30.18 851 25.13 8.2 46.7 58 0.3 32.6
16:55 1022 30.18 851 25.13 8.2 46.7 58 0.5 32.9
17:00 1022 30.18 851 25.13 7.9 46.2 59 0.4 32.7
17:05 1022 30.18 851 25.13 7.8 46.1 59 0.4 32.7
17:10 1022 30.18 851 25.13 8 46.3 60 0.6 33.1
17:15 1022 30.18 852 25.16 8.2 46.7 58 0.5 33
17:20 1022 30.18 852 25.16 8.2 46.7 57 0.1 32.2
17:25 1022 30.18 852 25.16 7.9 46.2 58 0.1 32.1
17:30 1022 30.18 852 25.16 8 46.3 57 0.1 32.1
17:35 1022 30.18 852 25.16 8 46.4 58 0.2 32.3
17:40 1023 30.21 852 25.16 7.8 46 60 0.5 32.9
17:45 1023 30.21 852 25.16 7.5 45.4 64 1.2 34.1
17:50 1023 30.21 852 25.16 7.2 44.9 59 -0.2 31.6
17:55 1023 30.21 852 25.16 7.3 45.2 64 1 33.8
18:00 1023 30.21 852 25.16 7.1 44.8 67 1.3 34.4
18:05 1023 30.21 852 25.16 6.9 44.4 68 1.4 34.5
18:10 1023 30.21 852 25.16 6.7 44 69 1.5 34.7
18:15 1023 30.21 852 25.16 6.4 43.5 71 1.4 34.6
18:20 1023 30.21 852 25.16 6.2 43.1 72 1.5 34.7
18:25 1023 30.21 852 25.16 6.1 43.1 72 1.5 34.8
18:30 1023 30.21 852 25.16 6.2 43.1 73 1.6 34.9
18:35 1023 30.21 853 25.19 6 42.8 75 1.9 35.4
18:40 1023 30.21 853 25.19 5.6 42 77 1.9 35.5
18:45 1023 30.21 853 25.19 5.5 41.8 78 2 35.6
18:50 1023 30.21 853 25.19 5.5 41.8 78 1.9 35.5
18:55 1023 30.21 853 25.19 5.5 41.8 78 1.9 35.4
19:00 1024 30.24 853 25.19 5.3 41.5 79 2 35.6
19:05 1024 30.24 853 25.19 5 41 79 1.7 35
19:10 1024 30.24 853 25.19 4.8 40.7 79 1.5 34.8
19:15 1024 30.24 853 25.19 4.7 40.4 80 1.5 34.8
19:20 1024 30.24 853 25.19 4.5 40 80 1.3 34.3
19:25 1024 30.24 853 25.19 4.3 39.7 80 1.2 34.2
19:30 1024 30.24 853 25.19 4.1 39.4 81 1.1 34
19:35 1024 30.24 853 25.19 4 39.2 82 1.2 34.1
19:40 1024 30.24 853 25.19 3.8 38.8 83 1.1 34
19:45 1024 30.24 853 25.19 3.4 38.2 83 0.7 33.3
19:50 1024 30.24 853 25.19 3.2 37.7 81 0.2 32.4
19:55 1024 30.24 853 25.19 3.4 38.1 78 -0.1 31.8
20:00 1024 30.24 853 25.19 3.4 38.1 80 0.2 32.4
20:05 1024 30.24 853 25.19 3.1 37.6 81 0.1 32.2
20:10 1024 30.24 853 25.19 3 37.3 83 0.3 32.6
20:15 1024 30.24 854 25.22 2.6 36.7 85 0.4 32.7
20:20 1024 30.24 854 25.22 2.7 36.8 85 0.4 32.8
20:25 1024 30.24 854 25.22 2.8 37.1 85 0.5 33
20:30 1024 30.24 854 25.22 2.9 37.2 84 0.5 32.9
20:35 1024 30.24 854 25.22 3 37.3 84 0.5 32.9
20:40 1025 30.27 854 25.22 2.9 37.3 84 0.6 33
20:45 1025 30.27 854 25.22 2.9 37.2 85 0.5 33
20:50 1025 30.27 854 25.22 2.8 37.1 85 0.6 33
20:55 1025 30.27 854 25.22 2.7 36.9 86 0.6 33
21:00 1025 30.27 854 25.22 2.8 37 85 0.6 33.1
21:05 1025 30.27 854 25.22 2.9 37.1 86 0.7 33.2
21:10 1025 30.27 854 25.22 2.9 37.1 86 0.7 33.3
21:15 1025 30.27 854 25.22 2.8 37.1 85 0.6 33.1
21:20 1025 30.27 854 25.22 2.8 37 86 0.6 33.1
21:25 1025 30.27 854 25.22 2.7 36.8 86 0.5 33
21:30 1025 30.27 854 25.22 2.6 36.8 85 0.4 32.8
21:35 1025 30.27 854 25.22 2.8 37 84 0.4 32.7
21:40 1025 30.27 854 25.22 2.9 37.2 83 0.3 32.5
21:45 1025 30.27 854 25.22 3 37.3 83 0.4 32.7
21:50 1025 30.27 854 25.22 2.7 36.9 84 0.3 32.6
21:55 1025 30.27 854 25.22 2.7 36.9 84 0.3 32.5
22:00 1025 30.27 854 25.22 2.6 36.7 84 0.2 32.3
22:05 1025 30.27 854 25.22 2.5 36.5 84 0.1 32.2
22:10 1025 30.27 854 25.22 2.4 36.3 85 0.1 32.1
22:15 1025 30.27 854 25.22 2.3 36.2 85 0.1 32.1
22:20 1025 30.27 854 25.22 2.5 36.6 84 0 32.1
22:25 1025 30.27 854 25.22 2.6 36.7 82 -0.1 31.9
22:30 1025 30.27 854 25.22 2.6 36.7 82 -0.1 31.9
22:35 1025 30.27 854 25.22 2.5 36.5 83 -0.1 31.8
22:40 1025 30.27 854 25.22 2.3 36.1 85 0 32
22:45 1025 30.27 854 25.22 2.1 35.7 85 -0.1 31.8
22:50 1025 30.27 854 25.22 2.1 35.7 84 -0.3 31.4
22:55 1025 30.27 854 25.22 2.3 36.1 83 -0.2 31.6
23:00 1025 30.27 854 25.22 2.3 36.1 84 -0.2 31.7
23:05 1025 30.27 854 25.22 2.2 36 85 -0.1 31.9
23:10 1025 30.27 854 25.22 2.1 35.8 86 -0 31.9
23:15 1025 30.27 854 25.22 2 35.7 86 -0.1 31.9
23:20 1025 30.27 854 25.22 1.9 35.4 86 -0.2 31.7
23:25 1025 30.27 854 25.22 1.8 35.2 86 -0.3 31.5
23:30 1025 30.27 854 25.22 1.9 35.3 85 -0.3 31.4
23:35 1025 30.27 854 25.22 2 35.5 85 -0.3 31.4
23:40 1025 30.27 854 25.22 1.9 35.4 85 -0.4 31.4
23:45 1025 30.27 854 25.22 2.2 35.9 83 -0.4 31.3
23:50 1025 30.27 854 25.22 2.1 35.7 84 -0.4 31.3
23:55 1025 30.27 854 25.22 1.8 35.2 84 -0.6 30.9
24:00 1025 30.27 854 25.22 1.6 34.9 84 -0.7 30.7